sensor_id;sensor_type;location;lat;lon;timestamp;P1;durP1;ratioP1;P2;durP2;ratioP2
61054;SDS011;46939;48.940;8.258;2022-07-29T00:01:13;7.63;;;3.10;;
61054;SDS011;46939;48.940;8.258;2022-07-29T00:03:45;4.43;;;2.67;;
61054;SDS011;46939;48.940;8.258;2022-07-29T00:06:16;3.93;;;2.90;;
61054;SDS011;46939;48.940;8.258;2022-07-29T00:08:46;4.68;;;2.83;;
61054;SDS011;46939;48.940;8.258;2022-07-29T00:11:14;8.77;;;2.88;;
61054;SDS011;46939;48.940;8.258;2022-07-29T00:13:43;4.80;;;2.80;;
61054;SDS011;46939;48.940;8.258;2022-07-29T00:16:12;5.82;;;2.78;;
61054;SDS011;46939;48.940;8.258;2022-07-29T00:18:41;4.18;;;2.75;;
61054;SDS011;46939;48.940;8.258;2022-07-29T00:21:14;4.07;;;2.75;;
61054;SDS011;46939;48.940;8.258;2022-07-29T00:23:43;4.78;;;3.00;;
61054;SDS011;46939;48.940;8.258;2022-07-29T00:26:11;4.97;;;2.80;;
61054;SDS011;46939;48.940;8.258;2022-07-29T00:28:40;5.78;;;2.85;;
61054;SDS011;46939;48.940;8.258;2022-07-29T00:31:08;9.30;;;3.13;;
61054;SDS011;46939;48.940;8.258;2022-07-29T00:33:37;5.55;;;2.60;;
61054;SDS011;46939;48.940;8.258;2022-07-29T00:36:06;4.40;;;2.97;;
61054;SDS011;46939;48.940;8.258;2022-07-29T00:38:34;5.93;;;3.13;;
61054;SDS011;46939;48.940;8.258;2022-07-29T00:41:03;5.70;;;2.83;;
61054;SDS011;46939;48.940;8.258;2022-07-29T00:43:32;7.00;;;3.00;;
61054;SDS011;46939;48.940;8.258;2022-07-29T00:46:00;4.53;;;3.20;;
61054;SDS011;46939;48.940;8.258;2022-07-29T00:48:29;5.15;;;3.40;;
61054;SDS011;46939;48.940;8.258;2022-07-29T00:50:58;6.15;;;3.05;;
61054;SDS011;46939;48.940;8.258;2022-07-29T00:53:28;6.13;;;3.00;;
61054;SDS011;46939;48.940;8.258;2022-07-29T00:56:00;5.00;;;2.72;;
61054;SDS011;46939;48.940;8.258;2022-07-29T00:58:28;4.20;;;2.80;;
61054;SDS011;46939;48.940;8.258;2022-07-29T01:00:57;4.53;;;3.33;;
61054;SDS011;46939;48.940;8.258;2022-07-29T01:03:26;4.70;;;3.08;;
61054;SDS011;46939;48.940;8.258;2022-07-29T01:05:55;4.55;;;2.97;;
61054;SDS011;46939;48.940;8.258;2022-07-29T01:08:23;6.13;;;3.30;;
61054;SDS011;46939;48.940;8.258;2022-07-29T01:10:52;5.68;;;3.30;;
61054;SDS011;46939;48.940;8.258;2022-07-29T01:13:27;5.60;;;3.45;;
61054;SDS011;46939;48.940;8.258;2022-07-29T01:16:00;8.13;;;3.30;;
61054;SDS011;46939;48.940;8.258;2022-07-29T01:18:36;4.25;;;3.00;;
61054;SDS011;46939;48.940;8.258;2022-07-29T01:21:21;6.05;;;3.20;;
61054;SDS011;46939;48.940;8.258;2022-07-29T01:24:11;3.97;;;2.97;;
61054;SDS011;46939;48.940;8.258;2022-07-29T01:26:52;4.95;;;3.30;;
61054;SDS011;46939;48.940;8.258;2022-07-29T01:29:29;7.45;;;3.40;;
61054;SDS011;46939;48.940;8.258;2022-07-29T01:32:04;4.82;;;3.10;;
61054;SDS011;46939;48.940;8.258;2022-07-29T01:34:38;6.78;;;3.47;;
61054;SDS011;46939;48.940;8.258;2022-07-29T01:37:17;4.57;;;3.20;;
61054;SDS011;46939;48.940;8.258;2022-07-29T01:39:48;4.72;;;3.30;;
61054;SDS011;46939;48.940;8.258;2022-07-29T01:42:20;4.43;;;3.08;;
61054;SDS011;46939;48.940;8.258;2022-07-29T01:44:59;5.32;;;3.78;;
61054;SDS011;46939;48.940;8.258;2022-07-29T01:47:31;7.57;;;3.47;;
61054;SDS011;46939;48.940;8.258;2022-07-29T01:50:06;7.72;;;3.35;;
61054;SDS011;46939;48.940;8.258;2022-07-29T01:52:39;5.00;;;3.60;;
61054;SDS011;46939;48.940;8.258;2022-07-29T01:55:13;4.97;;;3.50;;
61054;SDS011;46939;48.940;8.258;2022-07-29T01:57:45;5.70;;;3.50;;
61054;SDS011;46939;48.940;8.258;2022-07-29T02:00:18;3.90;;;3.00;;
61054;SDS011;46939;48.940;8.258;2022-07-29T02:02:48;5.30;;;3.38;;
61054;SDS011;46939;48.940;8.258;2022-07-29T02:05:18;7.05;;;3.60;;
61054;SDS011;46939;48.940;8.258;2022-07-29T02:07:50;5.35;;;3.42;;
61054;SDS011;46939;48.940;8.258;2022-07-29T02:10:21;5.75;;;3.60;;
61054;SDS011;46939;48.940;8.258;2022-07-29T02:12:52;6.97;;;3.58;;
61054;SDS011;46939;48.940;8.258;2022-07-29T02:15:27;4.57;;;3.45;;
61054;SDS011;46939;48.940;8.258;2022-07-29T02:17:59;7.20;;;3.53;;
61054;SDS011;46939;48.940;8.258;2022-07-29T02:20:32;5.72;;;3.65;;
61054;SDS011;46939;48.940;8.258;2022-07-29T02:23:02;7.15;;;3.58;;
61054;SDS011;46939;48.940;8.258;2022-07-29T02:25:31;5.78;;;3.90;;
61054;SDS011;46939;48.940;8.258;2022-07-29T02:28:00;5.70;;;3.70;;
61054;SDS011;46939;48.940;8.258;2022-07-29T02:30:33;7.47;;;3.72;;
61054;SDS011;46939;48.940;8.258;2022-07-29T02:33:04;7.95;;;3.72;;
61054;SDS011;46939;48.940;8.258;2022-07-29T02:35:35;6.20;;;3.70;;
61054;SDS011;46939;48.940;8.258;2022-07-29T02:38:05;5.85;;;3.47;;
61054;SDS011;46939;48.940;8.258;2022-07-29T02:40:48;4.75;;;3.40;;
61054;SDS011;46939;48.940;8.258;2022-07-29T02:43:19;4.65;;;3.47;;
61054;SDS011;46939;48.940;8.258;2022-07-29T02:45:53;4.57;;;3.38;;
61054;SDS011;46939;48.940;8.258;2022-07-29T02:48:37;4.90;;;3.50;;
61054;SDS011;46939;48.940;8.258;2022-07-29T02:51:11;6.25;;;3.60;;
61054;SDS011;46939;48.940;8.258;2022-07-29T02:53:46;5.07;;;3.55;;
61054;SDS011;46939;48.940;8.258;2022-07-29T02:56:20;5.63;;;3.33;;
61054;SDS011;46939;48.940;8.258;2022-07-29T02:58:54;8.73;;;3.88;;
61054;SDS011;46939;48.940;8.258;2022-07-29T03:01:29;5.55;;;3.97;;
61054;SDS011;46939;48.940;8.258;2022-07-29T03:04:01;5.55;;;3.88;;
61054;SDS011;46939;48.940;8.258;2022-07-29T03:06:32;7.18;;;3.70;;
61054;SDS011;46939;48.940;8.258;2022-07-29T03:09:02;5.78;;;3.60;;
61054;SDS011;46939;48.940;8.258;2022-07-29T03:11:31;6.25;;;3.70;;
61054;SDS011;46939;48.940;8.258;2022-07-29T03:14:02;5.60;;;3.78;;
61054;SDS011;46939;48.940;8.258;2022-07-29T03:16:33;6.75;;;3.88;;
61054;SDS011;46939;48.940;8.258;2022-07-29T03:19:04;5.82;;;3.72;;
61054;SDS011;46939;48.940;8.258;2022-07-29T03:21:33;8.30;;;3.85;;
61054;SDS011;46939;48.940;8.258;2022-07-29T03:24:02;9.98;;;3.83;;
61054;SDS011;46939;48.940;8.258;2022-07-29T03:26:30;6.43;;;3.90;;
61054;SDS011;46939;48.940;8.258;2022-07-29T03:28:59;7.60;;;3.78;;
61054;SDS011;46939;48.940;8.258;2022-07-29T03:31:27;7.57;;;4.00;;
61054;SDS011;46939;48.940;8.258;2022-07-29T03:33:59;6.13;;;4.03;;
61054;SDS011;46939;48.940;8.258;2022-07-29T03:36:27;4.80;;;3.60;;
61054;SDS011;46939;48.940;8.258;2022-07-29T03:38:56;7.97;;;3.70;;
61054;SDS011;46939;48.940;8.258;2022-07-29T03:41:25;14.25;;;3.92;;
61054;SDS011;46939;48.940;8.258;2022-07-29T03:43:54;7.85;;;4.00;;
61054;SDS011;46939;48.940;8.258;2022-07-29T03:46:24;6.18;;;4.45;;
61054;SDS011;46939;48.940;8.258;2022-07-29T03:49:00;5.28;;;3.58;;
61054;SDS011;46939;48.940;8.258;2022-07-29T03:51:30;7.97;;;4.20;;
61054;SDS011;46939;48.940;8.258;2022-07-29T03:53:59;5.32;;;3.63;;
61054;SDS011;46939;48.940;8.258;2022-07-29T03:56:29;8.15;;;4.20;;
61054;SDS011;46939;48.940;8.258;2022-07-29T03:59:02;6.68;;;3.97;;
61054;SDS011;46939;48.940;8.258;2022-07-29T04:01:32;6.38;;;4.22;;
61054;SDS011;46939;48.940;8.258;2022-07-29T04:04:04;7.03;;;3.78;;
61054;SDS011;46939;48.940;8.258;2022-07-29T04:06:37;5.38;;;3.97;;
61054;SDS011;46939;48.940;8.258;2022-07-29T04:09:07;10.60;;;4.67;;
61054;SDS011;46939;48.940;8.258;2022-07-29T04:11:36;7.53;;;4.38;;
61054;SDS011;46939;48.940;8.258;2022-07-29T04:14:06;5.20;;;3.88;;
61054;SDS011;46939;48.940;8.258;2022-07-29T04:16:34;5.88;;;4.35;;
61054;SDS011;46939;48.940;8.258;2022-07-29T04:19:06;5.22;;;4.18;;
61054;SDS011;46939;48.940;8.258;2022-07-29T04:21:36;6.50;;;4.07;;
61054;SDS011;46939;48.940;8.258;2022-07-29T04:24:06;5.72;;;4.07;;
61054;SDS011;46939;48.940;8.258;2022-07-29T04:26:35;9.90;;;4.07;;
61054;SDS011;46939;48.940;8.258;2022-07-29T04:29:04;11.32;;;4.60;;
61054;SDS011;46939;48.940;8.258;2022-07-29T04:31:32;6.93;;;4.57;;
61054;SDS011;46939;48.940;8.258;2022-07-29T04:34:01;9.63;;;4.22;;
61054;SDS011;46939;48.940;8.258;2022-07-29T04:36:32;7.13;;;4.55;;
61054;SDS011;46939;48.940;8.258;2022-07-29T04:39:01;5.72;;;4.50;;
61054;SDS011;46939;48.940;8.258;2022-07-29T04:41:30;6.88;;;4.22;;
61054;SDS011;46939;48.940;8.258;2022-07-29T04:43:59;6.63;;;4.50;;
61054;SDS011;46939;48.940;8.258;2022-07-29T04:46:30;6.32;;;4.15;;
61054;SDS011;46939;48.940;8.258;2022-07-29T04:48:59;6.15;;;3.78;;
61054;SDS011;46939;48.940;8.258;2022-07-29T04:51:28;7.40;;;4.40;;
61054;SDS011;46939;48.940;8.258;2022-07-29T04:53:59;7.20;;;4.45;;
61054;SDS011;46939;48.940;8.258;2022-07-29T04:56:28;4.68;;;3.88;;
61054;SDS011;46939;48.940;8.258;2022-07-29T04:58:56;5.40;;;3.67;;
61054;SDS011;46939;48.940;8.258;2022-07-29T05:01:25;6.53;;;4.10;;
61054;SDS011;46939;48.940;8.258;2022-07-29T05:03:54;6.00;;;4.22;;
61054;SDS011;46939;48.940;8.258;2022-07-29T05:06:22;5.90;;;4.28;;
61054;SDS011;46939;48.940;8.258;2022-07-29T05:08:51;29.50;;;4.68;;
61054;SDS011;46939;48.940;8.258;2022-07-29T05:11:22;8.23;;;4.55;;
61054;SDS011;46939;48.940;8.258;2022-07-29T05:13:50;8.15;;;5.07;;
61054;SDS011;46939;48.940;8.258;2022-07-29T05:16:19;10.55;;;5.18;;
61054;SDS011;46939;48.940;8.258;2022-07-29T05:18:48;5.25;;;4.38;;
61054;SDS011;46939;48.940;8.258;2022-07-29T05:21:16;6.30;;;4.63;;
61054;SDS011;46939;48.940;8.258;2022-07-29T05:23:45;7.82;;;4.25;;
61054;SDS011;46939;48.940;8.258;2022-07-29T05:26:13;8.20;;;4.70;;
61054;SDS011;46939;48.940;8.258;2022-07-29T05:28:44;5.55;;;4.15;;
61054;SDS011;46939;48.940;8.258;2022-07-29T05:31:12;7.70;;;4.57;;
61054;SDS011;46939;48.940;8.258;2022-07-29T05:33:41;8.55;;;4.20;;
61054;SDS011;46939;48.940;8.258;2022-07-29T05:36:10;10.52;;;4.65;;
61054;SDS011;46939;48.940;8.258;2022-07-29T05:38:39;7.60;;;4.82;;
61054;SDS011;46939;48.940;8.258;2022-07-29T05:41:08;10.75;;;4.65;;
61054;SDS011;46939;48.940;8.258;2022-07-29T05:43:36;6.43;;;4.90;;
61054;SDS011;46939;48.940;8.258;2022-07-29T05:46:08;8.40;;;5.25;;
61054;SDS011;46939;48.940;8.258;2022-07-29T05:48:36;9.45;;;5.18;;
61054;SDS011;46939;48.940;8.258;2022-07-29T05:51:05;10.43;;;5.20;;
61054;SDS011;46939;48.940;8.258;2022-07-29T05:53:33;9.15;;;4.72;;
61054;SDS011;46939;48.940;8.258;2022-07-29T05:56:02;11.00;;;5.55;;
61054;SDS011;46939;48.940;8.258;2022-07-29T05:58:32;11.93;;;4.97;;
61054;SDS011;46939;48.940;8.258;2022-07-29T06:01:01;10.23;;;4.28;;
61054;SDS011;46939;48.940;8.258;2022-07-29T06:03:32;7.00;;;4.60;;
61054;SDS011;46939;48.940;8.258;2022-07-29T06:06:03;12.18;;;5.43;;
61054;SDS011;46939;48.940;8.258;2022-07-29T06:08:32;8.10;;;4.75;;
61054;SDS011;46939;48.940;8.258;2022-07-29T06:11:01;6.80;;;4.38;;
61054;SDS011;46939;48.940;8.258;2022-07-29T06:13:30;7.75;;;4.50;;
61054;SDS011;46939;48.940;8.258;2022-07-29T06:15:59;6.50;;;4.53;;
61054;SDS011;46939;48.940;8.258;2022-07-29T06:18:28;6.20;;;4.50;;
61054;SDS011;46939;48.940;8.258;2022-07-29T06:20:59;6.50;;;3.78;;
61054;SDS011;46939;48.940;8.258;2022-07-29T06:23:27;5.75;;;3.90;;
61054;SDS011;46939;48.940;8.258;2022-07-29T06:25:56;8.43;;;4.95;;
61054;SDS011;46939;48.940;8.258;2022-07-29T06:28:25;6.72;;;3.58;;
61054;SDS011;46939;48.940;8.258;2022-07-29T06:30:54;7.43;;;3.67;;
61054;SDS011;46939;48.940;8.258;2022-07-29T06:33:22;6.32;;;3.50;;
61054;SDS011;46939;48.940;8.258;2022-07-29T06:35:51;12.23;;;3.60;;
61054;SDS011;46939;48.940;8.258;2022-07-29T06:38:22;6.55;;;3.30;;
61054;SDS011;46939;48.940;8.258;2022-07-29T06:40:51;9.07;;;4.20;;
61054;SDS011;46939;48.940;8.258;2022-07-29T06:43:30;9.32;;;3.45;;
61054;SDS011;46939;48.940;8.258;2022-07-29T06:46:01;13.73;;;3.70;;
61054;SDS011;46939;48.940;8.258;2022-07-29T06:48:31;5.35;;;3.70;;
61054;SDS011;46939;48.940;8.258;2022-07-29T06:51:01;5.25;;;3.15;;
61054;SDS011;46939;48.940;8.258;2022-07-29T06:53:33;7.38;;;3.15;;
61054;SDS011;46939;48.940;8.258;2022-07-29T06:56:03;7.85;;;2.90;;
61054;SDS011;46939;48.940;8.258;2022-07-29T06:58:34;6.00;;;2.97;;
61054;SDS011;46939;48.940;8.258;2022-07-29T07:01:04;5.13;;;3.13;;
61054;SDS011;46939;48.940;8.258;2022-07-29T07:03:34;6.35;;;3.03;;
61054;SDS011;46939;48.940;8.258;2022-07-29T07:06:03;4.78;;;2.80;;
61054;SDS011;46939;48.940;8.258;2022-07-29T07:08:34;10.82;;;3.00;;
61054;SDS011;46939;48.940;8.258;2022-07-29T07:11:03;5.63;;;2.90;;
61054;SDS011;46939;48.940;8.258;2022-07-29T07:13:32;5.82;;;2.92;;
61054;SDS011;46939;48.940;8.258;2022-07-29T07:16:01;6.35;;;3.08;;
61054;SDS011;46939;48.940;8.258;2022-07-29T07:18:32;6.65;;;2.97;;
61054;SDS011;46939;48.940;8.258;2022-07-29T07:21:01;6.93;;;2.60;;
61054;SDS011;46939;48.940;8.258;2022-07-29T07:23:30;4.90;;;2.33;;
61054;SDS011;46939;48.940;8.258;2022-07-29T07:26:01;5.50;;;2.72;;
61054;SDS011;46939;48.940;8.258;2022-07-29T07:28:31;8.93;;;2.08;;
61054;SDS011;46939;48.940;8.258;2022-07-29T07:30:59;5.18;;;2.70;;
61054;SDS011;46939;48.940;8.258;2022-07-29T07:33:28;8.02;;;2.60;;
61054;SDS011;46939;48.940;8.258;2022-07-29T07:35:57;5.30;;;2.65;;
61054;SDS011;46939;48.940;8.258;2022-07-29T07:38:25;6.55;;;2.08;;
61054;SDS011;46939;48.940;8.258;2022-07-29T07:40:54;5.35;;;2.20;;
61054;SDS011;46939;48.940;8.258;2022-07-29T07:43:25;4.40;;;2.10;;
61054;SDS011;46939;48.940;8.258;2022-07-29T07:45:54;4.85;;;2.45;;
61054;SDS011;46939;48.940;8.258;2022-07-29T07:48:22;3.85;;;2.38;;
61054;SDS011;46939;48.940;8.258;2022-07-29T07:50:51;4.70;;;2.28;;
61054;SDS011;46939;48.940;8.258;2022-07-29T07:53:19;8.43;;;2.60;;
61054;SDS011;46939;48.940;8.258;2022-07-29T07:55:48;6.60;;;2.50;;
61054;SDS011;46939;48.940;8.258;2022-07-29T07:58:16;6.35;;;2.20;;
61054;SDS011;46939;48.940;8.258;2022-07-29T08:00:48;6.15;;;2.30;;
61054;SDS011;46939;48.940;8.258;2022-07-29T08:03:17;6.45;;;2.58;;
61054;SDS011;46939;48.940;8.258;2022-07-29T08:05:45;5.78;;;2.40;;
61054;SDS011;46939;48.940;8.258;2022-07-29T08:08:16;4.78;;;2.00;;
61054;SDS011;46939;48.940;8.258;2022-07-29T08:10:44;4.22;;;2.40;;
61054;SDS011;46939;48.940;8.258;2022-07-29T08:13:24;2.83;;;1.90;;
61054;SDS011;46939;48.940;8.258;2022-07-29T08:15:58;3.53;;;2.20;;
61054;SDS011;46939;48.940;8.258;2022-07-29T08:18:36;5.00;;;2.22;;
61054;SDS011;46939;48.940;8.258;2022-07-29T08:21:05;4.68;;;2.10;;
61054;SDS011;46939;48.940;8.258;2022-07-29T08:23:34;3.60;;;2.38;;
61054;SDS011;46939;48.940;8.258;2022-07-29T08:26:03;4.97;;;2.50;;
61054;SDS011;46939;48.940;8.258;2022-07-29T08:28:35;3.75;;;2.10;;
61054;SDS011;46939;48.940;8.258;2022-07-29T08:31:07;5.28;;;2.22;;
61054;SDS011;46939;48.940;8.258;2022-07-29T08:33:35;5.60;;;2.13;;
61054;SDS011;46939;48.940;8.258;2022-07-29T08:36:04;9.00;;;2.17;;
61054;SDS011;46939;48.940;8.258;2022-07-29T08:38:33;6.88;;;1.90;;
61054;SDS011;46939;48.940;8.258;2022-07-29T08:41:02;7.95;;;2.47;;
61054;SDS011;46939;48.940;8.258;2022-07-29T08:43:31;3.95;;;2.10;;
61054;SDS011;46939;48.940;8.258;2022-07-29T08:46:02;5.25;;;2.10;;
61054;SDS011;46939;48.940;8.258;2022-07-29T08:48:33;5.70;;;2.25;;
61054;SDS011;46939;48.940;8.258;2022-07-29T08:51:02;4.60;;;2.10;;
61054;SDS011;46939;48.940;8.258;2022-07-29T08:53:31;3.58;;;1.83;;
61054;SDS011;46939;48.940;8.258;2022-07-29T08:56:03;3.38;;;1.88;;
61054;SDS011;46939;48.940;8.258;2022-07-29T08:58:33;7.15;;;1.98;;
61054;SDS011;46939;48.940;8.258;2022-07-29T09:01:02;3.78;;;2.03;;
61054;SDS011;46939;48.940;8.258;2022-07-29T09:03:35;4.90;;;2.05;;
61054;SDS011;46939;48.940;8.258;2022-07-29T09:06:04;6.13;;;2.00;;
61054;SDS011;46939;48.940;8.258;2022-07-29T09:08:34;6.55;;;2.13;;
61054;SDS011;46939;48.940;8.258;2022-07-29T09:11:07;5.80;;;2.23;;
61054;SDS011;46939;48.940;8.258;2022-07-29T09:13:36;5.18;;;2.20;;
61054;SDS011;46939;48.940;8.258;2022-07-29T09:16:05;4.90;;;2.20;;
61054;SDS011;46939;48.940;8.258;2022-07-29T09:18:39;12.45;;;2.55;;
61054;SDS011;46939;48.940;8.258;2022-07-29T09:21:11;3.97;;;1.85;;
61054;SDS011;46939;48.940;8.258;2022-07-29T09:24:04;6.78;;;2.35;;
61054;SDS011;46939;48.940;8.258;2022-07-29T09:26:35;5.75;;;2.38;;
61054;SDS011;46939;48.940;8.258;2022-07-29T09:29:09;4.13;;;2.20;;
61054;SDS011;46939;48.940;8.258;2022-07-29T09:31:42;6.80;;;2.08;;
61054;SDS011;46939;48.940;8.258;2022-07-29T09:34:21;4.85;;;2.58;;
61054;SDS011;46939;48.940;8.258;2022-07-29T09:36:51;7.72;;;2.15;;
61054;SDS011;46939;48.940;8.258;2022-07-29T09:39:31;6.65;;;2.08;;
61054;SDS011;46939;48.940;8.258;2022-07-29T09:42:02;4.45;;;2.03;;
61054;SDS011;46939;48.940;8.258;2022-07-29T09:44:43;3.55;;;1.92;;
61054;SDS011;46939;48.940;8.258;2022-07-29T09:47:13;5.80;;;2.10;;
61054;SDS011;46939;48.940;8.258;2022-07-29T09:49:53;7.03;;;2.22;;
61054;SDS011;46939;48.940;8.258;2022-07-29T09:52:25;6.50;;;1.95;;
61054;SDS011;46939;48.940;8.258;2022-07-29T09:55:03;6.65;;;2.53;;
61054;SDS011;46939;48.940;8.258;2022-07-29T09:57:36;5.07;;;2.05;;
61054;SDS011;46939;48.940;8.258;2022-07-29T10:00:05;5.18;;;1.92;;
61054;SDS011;46939;48.940;8.258;2022-07-29T10:02:39;4.30;;;1.73;;
61054;SDS011;46939;48.940;8.258;2022-07-29T10:05:23;3.17;;;1.88;;
61054;SDS011;46939;48.940;8.258;2022-07-29T10:07:54;5.35;;;1.90;;
61054;SDS011;46939;48.940;8.258;2022-07-29T10:10:24;5.88;;;2.10;;
61054;SDS011;46939;48.940;8.258;2022-07-29T10:12:55;4.28;;;2.00;;
61054;SDS011;46939;48.940;8.258;2022-07-29T10:15:26;3.38;;;1.52;;
61054;SDS011;46939;48.940;8.258;2022-07-29T10:17:57;2.63;;;1.77;;
61054;SDS011;46939;48.940;8.258;2022-07-29T10:20:29;6.07;;;1.85;;
61054;SDS011;46939;48.940;8.258;2022-07-29T10:22:58;3.72;;;1.90;;
61054;SDS011;46939;48.940;8.258;2022-07-29T10:25:27;7.72;;;1.90;;
61054;SDS011;46939;48.940;8.258;2022-07-29T10:27:56;4.15;;;1.73;;
61054;SDS011;46939;48.940;8.258;2022-07-29T10:30:25;4.82;;;1.58;;
61054;SDS011;46939;48.940;8.258;2022-07-29T10:33:06;4.55;;;1.50;;
61054;SDS011;46939;48.940;8.258;2022-07-29T10:38:54;3.80;;;1.70;;
61054;SDS011;46939;48.940;8.258;2022-07-29T10:41:45;4.45;;;1.90;;
61054;SDS011;46939;48.940;8.258;2022-07-29T10:44:24;3.17;;;1.70;;
61054;SDS011;46939;48.940;8.258;2022-07-29T10:46:53;3.28;;;1.85;;
61054;SDS011;46939;48.940;8.258;2022-07-29T10:49:23;3.95;;;1.50;;
61054;SDS011;46939;48.940;8.258;2022-07-29T10:51:58;2.70;;;1.40;;
61054;SDS011;46939;48.940;8.258;2022-07-29T10:57:26;4.18;;;1.60;;
61054;SDS011;46939;48.940;8.258;2022-07-29T11:03:10;5.28;;;1.90;;
61054;SDS011;46939;48.940;8.258;2022-07-29T11:06:12;2.67;;;1.23;;
61054;SDS011;46939;48.940;8.258;2022-07-29T11:08:44;3.17;;;1.20;;
61054;SDS011;46939;48.940;8.258;2022-07-29T11:14:02;1.58;;;1.00;;
61054;SDS011;46939;48.940;8.258;2022-07-29T11:19:31;2.88;;;1.40;;
61054;SDS011;46939;48.940;8.258;2022-07-29T11:22:01;1.50;;;1.05;;
61054;SDS011;46939;48.940;8.258;2022-07-29T11:24:33;3.22;;;1.52;;
61054;SDS011;46939;48.940;8.258;2022-07-29T11:27:05;3.70;;;1.30;;
61054;SDS011;46939;48.940;8.258;2022-07-29T11:29:39;5.95;;;1.52;;
61054;SDS011;46939;48.940;8.258;2022-07-29T11:32:19;3.53;;;1.40;;
61054;SDS011;46939;48.940;8.258;2022-07-29T11:34:49;5.25;;;1.50;;
61054;SDS011;46939;48.940;8.258;2022-07-29T11:37:33;2.00;;;1.40;;
61054;SDS011;46939;48.940;8.258;2022-07-29T11:40:11;3.28;;;1.42;;
61054;SDS011;46939;48.940;8.258;2022-07-29T11:42:48;7.15;;;1.13;;
61054;SDS011;46939;48.940;8.258;2022-07-29T11:45:21;4.32;;;1.25;;
61054;SDS011;46939;48.940;8.258;2022-07-29T11:47:54;1.65;;;1.20;;
61054;SDS011;46939;48.940;8.258;2022-07-29T11:50:32;6.55;;;1.30;;
61054;SDS011;46939;48.940;8.258;2022-07-29T11:53:03;4.07;;;1.15;;
61054;SDS011;46939;48.940;8.258;2022-07-29T11:55:41;4.28;;;1.20;;
61054;SDS011;46939;48.940;8.258;2022-07-29T11:58:10;2.53;;;1.25;;
61054;SDS011;46939;48.940;8.258;2022-07-29T12:00:40;4.15;;;1.30;;
61054;SDS011;46939;48.940;8.258;2022-07-29T12:03:11;3.55;;;1.48;;
61054;SDS011;46939;48.940;8.258;2022-07-29T12:05:40;2.67;;;1.20;;
61054;SDS011;46939;48.940;8.258;2022-07-29T12:08:11;6.43;;;1.48;;
61054;SDS011;46939;48.940;8.258;2022-07-29T12:10:44;4.63;;;1.10;;
61054;SDS011;46939;48.940;8.258;2022-07-29T12:13:14;3.17;;;1.30;;
61054;SDS011;46939;48.940;8.258;2022-07-29T12:15:51;1.40;;;0.93;;
61054;SDS011;46939;48.940;8.258;2022-07-29T12:18:22;3.08;;;1.00;;
61054;SDS011;46939;48.940;8.258;2022-07-29T12:20:56;2.05;;;1.17;;
61054;SDS011;46939;48.940;8.258;2022-07-29T12:23:28;9.45;;;1.33;;
61054;SDS011;46939;48.940;8.258;2022-07-29T12:26:03;6.45;;;1.50;;
61054;SDS011;46939;48.940;8.258;2022-07-29T12:28:32;2.10;;;1.13;;
61054;SDS011;46939;48.940;8.258;2022-07-29T12:31:05;1.85;;;0.90;;
61054;SDS011;46939;48.940;8.258;2022-07-29T12:33:40;5.38;;;1.00;;
61054;SDS011;46939;48.940;8.258;2022-07-29T12:36:10;1.55;;;1.00;;
61054;SDS011;46939;48.940;8.258;2022-07-29T12:38:41;3.58;;;1.13;;
61054;SDS011;46939;48.940;8.258;2022-07-29T12:41:13;4.13;;;1.10;;
61054;SDS011;46939;48.940;8.258;2022-07-29T12:43:51;4.28;;;1.15;;
61054;SDS011;46939;48.940;8.258;2022-07-29T12:46:21;5.57;;;1.48;;
61054;SDS011;46939;48.940;8.258;2022-07-29T12:48:50;3.80;;;1.40;;
61054;SDS011;46939;48.940;8.258;2022-07-29T12:51:27;3.85;;;1.45;;
61054;SDS011;46939;48.940;8.258;2022-07-29T12:54:07;3.03;;;1.35;;
61054;SDS011;46939;48.940;8.258;2022-07-29T12:56:42;3.58;;;1.17;;
61054;SDS011;46939;48.940;8.258;2022-07-29T12:59:12;3.97;;;1.30;;
61054;SDS011;46939;48.940;8.258;2022-07-29T13:01:43;2.05;;;1.20;;
61054;SDS011;46939;48.940;8.258;2022-07-29T13:04:23;3.10;;;1.00;;
61054;SDS011;46939;48.940;8.258;2022-07-29T13:06:57;6.15;;;1.23;;
61054;SDS011;46939;48.940;8.258;2022-07-29T13:09:35;2.70;;;1.35;;
61054;SDS011;46939;48.940;8.258;2022-07-29T13:12:08;5.63;;;1.30;;
61054;SDS011;46939;48.940;8.258;2022-07-29T13:14:38;3.08;;;1.10;;
61054;SDS011;46939;48.940;8.258;2022-07-29T13:17:09;3.40;;;1.27;;
61054;SDS011;46939;48.940;8.258;2022-07-29T13:19:42;2.90;;;1.20;;
61054;SDS011;46939;48.940;8.258;2022-07-29T13:22:12;3.05;;;1.30;;
61054;SDS011;46939;48.940;8.258;2022-07-29T13:24:52;4.05;;;1.27;;
61054;SDS011;46939;48.940;8.258;2022-07-29T13:27:25;5.47;;;1.20;;
61054;SDS011;46939;48.940;8.258;2022-07-29T13:29:56;3.38;;;1.20;;
61054;SDS011;46939;48.940;8.258;2022-07-29T13:32:28;4.90;;;1.08;;
61054;SDS011;46939;48.940;8.258;2022-07-29T13:35:00;8.23;;;1.48;;
61054;SDS011;46939;48.940;8.258;2022-07-29T13:37:30;2.15;;;0.90;;
61054;SDS011;46939;48.940;8.258;2022-07-29T13:40:00;3.00;;;1.38;;
61054;SDS011;46939;48.940;8.258;2022-07-29T13:42:31;7.53;;;1.17;;
61054;SDS011;46939;48.940;8.258;2022-07-29T13:45:00;6.05;;;1.30;;
61054;SDS011;46939;48.940;8.258;2022-07-29T13:47:29;2.35;;;0.80;;
61054;SDS011;46939;48.940;8.258;2022-07-29T13:49:58;5.40;;;1.35;;
61054;SDS011;46939;48.940;8.258;2022-07-29T13:52:27;4.00;;;1.10;;
61054;SDS011;46939;48.940;8.258;2022-07-29T13:54:56;2.97;;;1.30;;
61054;SDS011;46939;48.940;8.258;2022-07-29T13:57:24;3.30;;;0.90;;
61054;SDS011;46939;48.940;8.258;2022-07-29T13:59:56;3.25;;;1.13;;
61054;SDS011;46939;48.940;8.258;2022-07-29T14:02:24;2.67;;;1.00;;
61054;SDS011;46939;48.940;8.258;2022-07-29T14:04:53;3.85;;;1.02;;
61054;SDS011;46939;48.940;8.258;2022-07-29T14:07:22;2.63;;;1.10;;
61054;SDS011;46939;48.940;8.258;2022-07-29T14:09:51;1.85;;;1.00;;
61054;SDS011;46939;48.940;8.258;2022-07-29T14:12:19;2.42;;;1.23;;
61054;SDS011;46939;48.940;8.258;2022-07-29T14:14:48;4.15;;;1.05;;
61054;SDS011;46939;48.940;8.258;2022-07-29T14:17:19;2.33;;;0.93;;
61054;SDS011;46939;48.940;8.258;2022-07-29T14:22:30;2.85;;;1.00;;
61054;SDS011;46939;48.940;8.258;2022-07-29T14:24:58;3.08;;;1.27;;
61054;SDS011;46939;48.940;8.258;2022-07-29T14:27:27;3.15;;;1.13;;
61054;SDS011;46939;48.940;8.258;2022-07-29T14:29:55;2.78;;;1.20;;
61054;SDS011;46939;48.940;8.258;2022-07-29T14:32:27;5.70;;;1.45;;
61054;SDS011;46939;48.940;8.258;2022-07-29T14:34:55;3.08;;;1.05;;
61054;SDS011;46939;48.940;8.258;2022-07-29T14:37:24;5.75;;;1.08;;
61054;SDS011;46939;48.940;8.258;2022-07-29T14:39:52;2.75;;;1.10;;
61054;SDS011;46939;48.940;8.258;2022-07-29T14:42:24;3.15;;;1.00;;
61054;SDS011;46939;48.940;8.258;2022-07-29T14:44:53;2.40;;;0.90;;
61054;SDS011;46939;48.940;8.258;2022-07-29T14:47:21;4.07;;;1.00;;
61054;SDS011;46939;48.940;8.258;2022-07-29T14:49:52;2.38;;;0.80;;
61054;SDS011;46939;48.940;8.258;2022-07-29T14:52:21;1.58;;;0.90;;
61054;SDS011;46939;48.940;8.258;2022-07-29T14:54:49;2.25;;;1.00;;
61054;SDS011;46939;48.940;8.258;2022-07-29T14:57:18;4.00;;;1.13;;
61054;SDS011;46939;48.940;8.258;2022-07-29T14:59:47;4.15;;;1.23;;
61054;SDS011;46939;48.940;8.258;2022-07-29T15:02:15;3.05;;;1.00;;
61054;SDS011;46939;48.940;8.258;2022-07-29T15:04:44;5.65;;;1.00;;
61054;SDS011;46939;48.940;8.258;2022-07-29T15:07:16;4.90;;;0.95;;
61054;SDS011;46939;48.940;8.258;2022-07-29T15:09:44;4.97;;;1.85;;
61054;SDS011;46939;48.940;8.258;2022-07-29T15:12:13;2.25;;;0.90;;
61054;SDS011;46939;48.940;8.258;2022-07-29T15:14:41;3.05;;;0.93;;
61054;SDS011;46939;48.940;8.258;2022-07-29T15:17:10;2.47;;;0.88;;
61054;SDS011;46939;48.940;8.258;2022-07-29T15:19:39;2.00;;;0.80;;
61054;SDS011;46939;48.940;8.258;2022-07-29T15:22:08;1.90;;;0.80;;
61054;SDS011;46939;48.940;8.258;2022-07-29T15:24:39;3.13;;;0.88;;
61054;SDS011;46939;48.940;8.258;2022-07-29T15:27:07;2.13;;;0.95;;
61054;SDS011;46939;48.940;8.258;2022-07-29T15:29:39;3.10;;;1.08;;